sensor_id;sensor_type;location;lat;lon;timestamp;temperature;humidity
70089;HTU21D;57460;47.134;19.888;2023-11-21T00:00:17;8.96;72.35
70089;HTU21D;57460;47.134;19.888;2023-11-21T00:02:45;8.93;71.58
70089;HTU21D;57460;47.134;19.888;2023-11-21T00:05:13;8.91;71.62
70089;HTU21D;57460;47.134;19.888;2023-11-21T00:07:45;8.90;71.88
70089;HTU21D;57460;47.134;19.888;2023-11-21T00:10:16;8.82;73.02
70089;HTU21D;57460;47.134;19.888;2023-11-21T00:12:47;8.88;71.70
70089;HTU21D;57460;47.134;19.888;2023-11-21T00:15:14;8.81;72.21
70089;HTU21D;57460;47.134;19.888;2023-11-21T00:17:40;8.79;71.84
70089;HTU21D;57460;47.134;19.888;2023-11-21T00:20:06;8.73;72.25
70089;HTU21D;57460;47.134;19.888;2023-11-21T00:22:36;8.63;72.51
70089;HTU21D;57460;47.134;19.888;2023-11-21T00:25:02;8.60;72.52
70089;HTU21D;57460;47.134;19.888;2023-11-21T00:27:30;8.56;73.41
70089;HTU21D;57460;47.134;19.888;2023-11-21T00:29:56;8.52;72.85
70089;HTU21D;57460;47.134;19.888;2023-11-21T00:32:22;8.53;72.91
70089;HTU21D;57460;47.134;19.888;2023-11-21T00:34:50;8.60;72.91
70089;HTU21D;57460;47.134;19.888;2023-11-21T00:37:16;8.61;72.54
70089;HTU21D;57460;47.134;19.888;2023-11-21T00:39:44;8.61;73.10
70089;HTU21D;57460;47.134;19.888;2023-11-21T00:42:13;8.58;73.72
70089;HTU21D;57460;47.134;19.888;2023-11-21T00:44:42;8.65;72.29
70089;HTU21D;57460;47.134;19.888;2023-11-21T00:47:08;8.67;72.92
70089;HTU21D;57460;47.134;19.888;2023-11-21T00:49:41;8.66;72.42
70089;HTU21D;57460;47.134;19.888;2023-11-21T00:52:09;8.66;72.39
70089;HTU21D;57460;47.134;19.888;2023-11-21T00:54:37;8.66;72.05
70089;HTU21D;57460;47.134;19.888;2023-11-21T00:57:03;8.66;72.28
70089;HTU21D;57460;47.134;19.888;2023-11-21T00:59:38;8.66;71.50
70089;HTU21D;57460;47.134;19.888;2023-11-21T01:02:07;8.64;71.30
70089;HTU21D;57460;47.134;19.888;2023-11-21T01:04:36;8.55;72.79
70089;HTU21D;57460;47.134;19.888;2023-11-21T01:07:02;8.53;72.53
70089;HTU21D;57460;47.134;19.888;2023-11-21T01:09:31;8.50;72.43
70089;HTU21D;57460;47.134;19.888;2023-11-21T01:11:56;8.47;73.17
70089;HTU21D;57460;47.134;19.888;2023-11-21T01:14:22;8.52;71.87
70089;HTU21D;57460;47.134;19.888;2023-11-21T01:16:59;8.55;71.90
70089;HTU21D;57460;47.134;19.888;2023-11-21T01:19:35;8.52;72.25
70089;HTU21D;57460;47.134;19.888;2023-11-21T01:22:01;8.48;72.24
70089;HTU21D;57460;47.134;19.888;2023-11-21T01:24:26;8.45;73.28
70089;HTU21D;57460;47.134;19.888;2023-11-21T01:26:55;8.37;73.80
70089;HTU21D;57460;47.134;19.888;2023-11-21T01:29:21;8.28;73.44
70089;HTU21D;57460;47.134;19.888;2023-11-21T01:31:49;8.18;73.51
70089;HTU21D;57460;47.134;19.888;2023-11-21T01:34:18;8.11;74.41
70089;HTU21D;57460;47.134;19.888;2023-11-21T01:36:46;8.06;73.64
70089;HTU21D;57460;47.134;19.888;2023-11-21T01:39:15;8.04;73.76
70089;HTU21D;57460;47.134;19.888;2023-11-21T01:41:47;7.99;74.04
70089;HTU21D;57460;47.134;19.888;2023-11-21T01:44:15;7.99;73.04
70089;HTU21D;57460;47.134;19.888;2023-11-21T01:46:42;7.94;72.66
70089;HTU21D;57460;47.134;19.888;2023-11-21T01:49:09;7.92;72.51
70089;HTU21D;57460;47.134;19.888;2023-11-21T01:51:39;7.83;72.85
70089;HTU21D;57460;47.134;19.888;2023-11-21T01:54:09;7.79;72.96
70089;HTU21D;57460;47.134;19.888;2023-11-21T01:56:37;7.77;73.23
70089;HTU21D;57460;47.134;19.888;2023-11-21T01:59:03;7.78;73.67
70089;HTU21D;57460;47.134;19.888;2023-11-21T02:01:33;7.75;75.02
70089;HTU21D;57460;47.134;19.888;2023-11-21T02:03:58;7.73;75.68
70089;HTU21D;57460;47.134;19.888;2023-11-21T02:06:27;7.65;75.67
70089;HTU21D;57460;47.134;19.888;2023-11-21T02:08:56;7.67;75.54
70089;HTU21D;57460;47.134;19.888;2023-11-21T02:11:22;7.67;75.95
70089;HTU21D;57460;47.134;19.888;2023-11-21T02:13:51;7.73;76.21
70089;HTU21D;57460;47.134;19.888;2023-11-21T02:16:19;7.81;76.27
70089;HTU21D;57460;47.134;19.888;2023-11-21T02:18:49;7.88;75.74
70089;HTU21D;57460;47.134;19.888;2023-11-21T02:21:17;7.93;75.91
70089;HTU21D;57460;47.134;19.888;2023-11-21T02:23:45;8.01;75.64
70089;HTU21D;57460;47.134;19.888;2023-11-21T02:26:14;8.11;75.57
70089;HTU21D;57460;47.134;19.888;2023-11-21T02:28:40;8.23;74.27
70089;HTU21D;57460;47.134;19.888;2023-11-21T02:31:06;8.32;74.31
70089;HTU21D;57460;47.134;19.888;2023-11-21T02:33:35;8.38;74.22
70089;HTU21D;57460;47.134;19.888;2023-11-21T02:36:06;8.49;72.75
70089;HTU21D;57460;47.134;19.888;2023-11-21T02:38:38;8.53;73.86
70089;HTU21D;57460;47.134;19.888;2023-11-21T02:41:09;8.58;74.06
70089;HTU21D;57460;47.134;19.888;2023-11-21T02:43:38;8.57;74.19
70089;HTU21D;57460;47.134;19.888;2023-11-21T02:46:13;8.59;74.71
70089;HTU21D;57460;47.134;19.888;2023-11-21T02:48:42;8.67;73.91
70089;HTU21D;57460;47.134;19.888;2023-11-21T02:51:08;8.71;73.87
70089;HTU21D;57460;47.134;19.888;2023-11-21T02:53:34;8.77;73.90
70089;HTU21D;57460;47.134;19.888;2023-11-21T02:56:03;8.81;73.61
70089;HTU21D;57460;47.134;19.888;2023-11-21T02:58:31;8.86;73.68
70089;HTU21D;57460;47.134;19.888;2023-11-21T03:00:57;8.93;73.33
70089;HTU21D;57460;47.134;19.888;2023-11-21T03:03:22;8.96;73.69
70089;HTU21D;57460;47.134;19.888;2023-11-21T03:05:54;8.95;73.72
70089;HTU21D;57460;47.134;19.888;2023-11-21T03:08:30;8.96;73.91
70089;HTU21D;57460;47.134;19.888;2023-11-21T03:10:58;8.98;73.91
70089;HTU21D;57460;47.134;19.888;2023-11-21T03:13:24;9.05;73.59
70089;HTU21D;57460;47.134;19.888;2023-11-21T03:15:50;9.07;73.72
70089;HTU21D;57460;47.134;19.888;2023-11-21T03:18:16;9.11;73.42
70089;HTU21D;57460;47.134;19.888;2023-11-21T03:20:43;9.16;73.36
70089;HTU21D;57460;47.134;19.888;2023-11-21T03:23:12;9.17;73.19
70089;HTU21D;57460;47.134;19.888;2023-11-21T03:25:40;9.19;73.08
70089;HTU21D;57460;47.134;19.888;2023-11-21T03:28:11;9.24;72.70
70089;HTU21D;57460;47.134;19.888;2023-11-21T03:30:37;9.29;72.97
70089;HTU21D;57460;47.134;19.888;2023-11-21T03:33:08;9.33;72.69
70089;HTU21D;57460;47.134;19.888;2023-11-21T03:35:34;9.37;72.29
70089;HTU21D;57460;47.134;19.888;2023-11-21T03:38:03;9.32;72.72
70089;HTU21D;57460;47.134;19.888;2023-11-21T03:40:38;9.32;72.70
70089;HTU21D;57460;47.134;19.888;2023-11-21T03:43:13;9.29;72.78
70089;HTU21D;57460;47.134;19.888;2023-11-21T03:45:43;9.24;72.91
70089;HTU21D;57460;47.134;19.888;2023-11-21T03:48:09;9.24;72.90
70089;HTU21D;57460;47.134;19.888;2023-11-21T03:50:38;9.24;72.88
70089;HTU21D;57460;47.134;19.888;2023-11-21T03:53:12;9.24;72.79
70089;HTU21D;57460;47.134;19.888;2023-11-21T03:55:45;9.24;72.38
70089;HTU21D;57460;47.134;19.888;2023-11-21T03:58:14;9.23;72.78
70089;HTU21D;57460;47.134;19.888;2023-11-21T04:00:42;9.24;72.55
70089;HTU21D;57460;47.134;19.888;2023-11-21T04:03:10;9.26;72.31
70089;HTU21D;57460;47.134;19.888;2023-11-21T04:05:38;9.26;72.26
70089;HTU21D;57460;47.134;19.888;2023-11-21T04:08:07;9.25;72.11
70089;HTU21D;57460;47.134;19.888;2023-11-21T04:10:36;9.24;72.01
70089;HTU21D;57460;47.134;19.888;2023-11-21T04:13:05;9.20;72.22
70089;HTU21D;57460;47.134;19.888;2023-11-21T04:15:34;9.15;72.50
70089;HTU21D;57460;47.134;19.888;2023-11-21T04:18:02;9.09;72.52
70089;HTU21D;57460;47.134;19.888;2023-11-21T04:20:31;9.05;72.99
70089;HTU21D;57460;47.134;19.888;2023-11-21T04:23:02;9.03;73.00
70089;HTU21D;57460;47.134;19.888;2023-11-21T04:25:31;9.03;73.25
70089;HTU21D;57460;47.134;19.888;2023-11-21T04:27:59;9.03;73.09
70089;HTU21D;57460;47.134;19.888;2023-11-21T04:30:25;9.00;73.47
70089;HTU21D;57460;47.134;19.888;2023-11-21T04:32:53;9.01;73.23
70089;HTU21D;57460;47.134;19.888;2023-11-21T04:35:19;8.97;73.82
70089;HTU21D;57460;47.134;19.888;2023-11-21T04:37:45;9.00;73.64
70089;HTU21D;57460;47.134;19.888;2023-11-21T04:40:11;9.02;73.22
70089;HTU21D;57460;47.134;19.888;2023-11-21T04:42:37;9.03;73.19
70089;HTU21D;57460;47.134;19.888;2023-11-21T04:45:08;9.07;73.33
70089;HTU21D;57460;47.134;19.888;2023-11-21T04:47:35;9.09;72.91
70089;HTU21D;57460;47.134;19.888;2023-11-21T04:50:02;9.11;72.86
70089;HTU21D;57460;47.134;19.888;2023-11-21T04:52:29;9.10;73.05
70089;HTU21D;57460;47.134;19.888;2023-11-21T04:55:09;9.10;73.16
70089;HTU21D;57460;47.134;19.888;2023-11-21T04:57:36;9.11;72.58
70089;HTU21D;57460;47.134;19.888;2023-11-21T05:00:03;9.14;72.58
70089;HTU21D;57460;47.134;19.888;2023-11-21T05:02:32;9.11;72.41
70089;HTU21D;57460;47.134;19.888;2023-11-21T05:05:00;9.06;72.58
70089;HTU21D;57460;47.134;19.888;2023-11-21T05:07:31;9.00;73.29
70089;HTU21D;57460;47.134;19.888;2023-11-21T05:10:01;8.97;73.45
70089;HTU21D;57460;47.134;19.888;2023-11-21T05:12:31;9.03;72.80
70089;HTU21D;57460;47.134;19.888;2023-11-21T05:15:04;9.10;73.00
70089;HTU21D;57460;47.134;19.888;2023-11-21T05:17:40;9.18;72.32
70089;HTU21D;57460;47.134;19.888;2023-11-21T05:20:16;9.23;72.22
70089;HTU21D;57460;47.134;19.888;2023-11-21T05:22:49;9.18;72.60
70089;HTU21D;57460;47.134;19.888;2023-11-21T05:25:18;9.20;72.31
70089;HTU21D;57460;47.134;19.888;2023-11-21T05:27:49;9.24;72.10
70089;HTU21D;57460;47.134;19.888;2023-11-21T05:30:22;9.29;71.87
70089;HTU21D;57460;47.134;19.888;2023-11-21T05:32:48;9.34;71.54
70089;HTU21D;57460;47.134;19.888;2023-11-21T05:35:16;9.37;71.48
70089;HTU21D;57460;47.134;19.888;2023-11-21T05:37:44;9.36;71.55
70089;HTU21D;57460;47.134;19.888;2023-11-21T05:40:12;9.30;71.93
70089;HTU21D;57460;47.134;19.888;2023-11-21T05:42:48;9.26;71.88
70089;HTU21D;57460;47.134;19.888;2023-11-21T05:45:17;9.25;71.98
70089;HTU21D;57460;47.134;19.888;2023-11-21T05:47:52;9.21;72.18
70089;HTU21D;57460;47.134;19.888;2023-11-21T05:50:20;9.23;71.84
70089;HTU21D;57460;47.134;19.888;2023-11-21T05:52:51;9.25;71.72
70089;HTU21D;57460;47.134;19.888;2023-11-21T05:55:35;9.29;71.74
70089;HTU21D;57460;47.134;19.888;2023-11-21T05:58:01;9.33;71.64
70089;HTU21D;57460;47.134;19.888;2023-11-21T06:00:27;9.35;71.48
70089;HTU21D;57460;47.134;19.888;2023-11-21T06:02:54;9.38;71.42
70089;HTU21D;57460;47.134;19.888;2023-11-21T06:05:25;9.40;71.30
70089;HTU21D;57460;47.134;19.888;2023-11-21T06:07:56;9.40;71.35
70089;HTU21D;57460;47.134;19.888;2023-11-21T06:10:26;9.45;70.97
70089;HTU21D;57460;47.134;19.888;2023-11-21T06:13:01;9.51;70.99
70089;HTU21D;57460;47.134;19.888;2023-11-21T06:15:30;9.53;70.78
70089;HTU21D;57460;47.134;19.888;2023-11-21T06:17:55;9.53;70.60
70089;HTU21D;57460;47.134;19.888;2023-11-21T06:20:25;9.59;70.76
70089;HTU21D;57460;47.134;19.888;2023-11-21T06:22:51;9.62;70.41
70089;HTU21D;57460;47.134;19.888;2023-11-21T06:25:17;9.66;70.31
70089;HTU21D;57460;47.134;19.888;2023-11-21T06:27:45;9.70;70.35
70089;HTU21D;57460;47.134;19.888;2023-11-21T06:30:12;9.72;70.32
70089;HTU21D;57460;47.134;19.888;2023-11-21T06:32:41;9.76;69.97
70089;HTU21D;57460;47.134;19.888;2023-11-21T06:35:13;9.82;70.05
70089;HTU21D;57460;47.134;19.888;2023-11-21T06:37:40;9.88;69.71
70089;HTU21D;57460;47.134;19.888;2023-11-21T06:40:07;9.88;69.68
70089;HTU21D;57460;47.134;19.888;2023-11-21T06:42:35;9.93;69.73
70089;HTU21D;57460;47.134;19.888;2023-11-21T06:45:04;9.96;69.86
70089;HTU21D;57460;47.134;19.888;2023-11-21T06:47:30;10.03;69.77
70089;HTU21D;57460;47.134;19.888;2023-11-21T06:49:56;10.09;69.27
70089;HTU21D;57460;47.134;19.888;2023-11-21T06:52:24;10.09;69.38
70089;HTU21D;57460;47.134;19.888;2023-11-21T06:54:50;10.18;69.33
70089;HTU21D;57460;47.134;19.888;2023-11-21T06:57:19;10.19;69.01
70089;HTU21D;57460;47.134;19.888;2023-11-21T06:59:45;10.21;69.07
70089;HTU21D;57460;47.134;19.888;2023-11-21T07:02:16;10.26;69.43
70089;HTU21D;57460;47.134;19.888;2023-11-21T07:04:53;10.29;69.39
70089;HTU21D;57460;47.134;19.888;2023-11-21T07:07:25;10.34;69.43
70089;HTU21D;57460;47.134;19.888;2023-11-21T07:09:57;10.39;69.24
70089;HTU21D;57460;47.134;19.888;2023-11-21T07:12:22;10.40;69.30
70089;HTU21D;57460;47.134;19.888;2023-11-21T07:14:51;10.48;69.23
70089;HTU21D;57460;47.134;19.888;2023-11-21T07:17:22;10.40;68.08
70089;HTU21D;57460;47.134;19.888;2023-11-21T07:19:48;10.40;68.60
70089;HTU21D;57460;47.134;19.888;2023-11-21T07:22:16;10.43;67.95
70089;HTU21D;57460;47.134;19.888;2023-11-21T07:24:52;10.51;68.75
70089;HTU21D;57460;47.134;19.888;2023-11-21T07:27:18;10.55;68.43
70089;HTU21D;57460;47.134;19.888;2023-11-21T07:29:44;10.60;68.72
70089;HTU21D;57460;47.134;19.888;2023-11-21T07:32:10;10.63;68.42
70089;HTU21D;57460;47.134;19.888;2023-11-21T07:34:42;10.67;69.10
70089;HTU21D;57460;47.134;19.888;2023-11-21T07:37:08;10.71;69.16
70089;HTU21D;57460;47.134;19.888;2023-11-21T07:39:35;10.77;69.05
70089;HTU21D;57460;47.134;19.888;2023-11-21T07:42:07;10.73;68.93
70089;HTU21D;57460;47.134;19.888;2023-11-21T07:44:36;10.80;68.71
70089;HTU21D;57460;47.134;19.888;2023-11-21T07:47:05;10.84;68.72
70089;HTU21D;57460;47.134;19.888;2023-11-21T07:49:30;10.84;68.07
70089;HTU21D;57460;47.134;19.888;2023-11-21T07:51:56;10.94;68.08
70089;HTU21D;57460;47.134;19.888;2023-11-21T07:54:22;10.89;67.48
70089;HTU21D;57460;47.134;19.888;2023-11-21T07:56:48;11.00;67.91
70089;HTU21D;57460;47.134;19.888;2023-11-21T07:59:20;11.01;68.01
70089;HTU21D;57460;47.134;19.888;2023-11-21T08:01:46;11.12;67.84
70089;HTU21D;57460;47.134;19.888;2023-11-21T08:04:15;11.04;67.07
70089;HTU21D;57460;47.134;19.888;2023-11-21T08:06:44;11.18;67.20
70089;HTU21D;57460;47.134;19.888;2023-11-21T08:09:12;11.26;65.82
70089;HTU21D;57460;47.134;19.888;2023-11-21T08:11:38;11.26;66.99
70089;HTU21D;57460;47.134;19.888;2023-11-21T08:14:05;11.29;66.94
70089;HTU21D;57460;47.134;19.888;2023-11-21T08:16:30;11.41;66.59
70089;HTU21D;57460;47.134;19.888;2023-11-21T08:18:59;11.43;65.97
70089;HTU21D;57460;47.134;19.888;2023-11-21T08:21:31;11.49;66.53
70089;HTU21D;57460;47.134;19.888;2023-11-21T08:23:57;11.45;65.53
70089;HTU21D;57460;47.134;19.888;2023-11-21T08:26:23;11.60;66.10
70089;HTU21D;57460;47.134;19.888;2023-11-21T08:28:51;11.60;65.53
70089;HTU21D;57460;47.134;19.888;2023-11-21T08:31:28;11.79;64.77
70089;HTU21D;57460;47.134;19.888;2023-11-21T08:33:55;11.69;65.08
70089;HTU21D;57460;47.134;19.888;2023-11-21T08:36:24;11.71;64.84
70089;HTU21D;57460;47.134;19.888;2023-11-21T08:38:52;11.64;64.03
70089;HTU21D;57460;47.134;19.888;2023-11-21T08:41:18;11.68;64.82
70089;HTU21D;57460;47.134;19.888;2023-11-21T08:43:49;11.63;64.86
70089;HTU21D;57460;47.134;19.888;2023-11-21T08:46:16;11.73;64.78
70089;HTU21D;57460;47.134;19.888;2023-11-21T08:48:45;11.57;64.58
70089;HTU21D;57460;47.134;19.888;2023-11-21T08:51:11;11.63;64.81
70089;HTU21D;57460;47.134;19.888;2023-11-21T08:53:38;11.67;64.53
70089;HTU21D;57460;47.134;19.888;2023-11-21T08:56:07;11.52;64.60
70089;HTU21D;57460;47.134;19.888;2023-11-21T08:58:36;11.64;65.01
70089;HTU21D;57460;47.134;19.888;2023-11-21T09:01:03;11.71;64.78
70089;HTU21D;57460;47.134;19.888;2023-11-21T09:03:28;11.71;64.87
70089;HTU21D;57460;47.134;19.888;2023-11-21T09:06:00;11.78;64.29
70089;HTU21D;57460;47.134;19.888;2023-11-21T09:08:26;11.86;63.66
70089;HTU21D;57460;47.134;19.888;2023-11-21T09:10:54;11.84;64.23
70089;HTU21D;57460;47.134;19.888;2023-11-21T09:13:28;11.87;64.21
70089;HTU21D;57460;47.134;19.888;2023-11-21T09:15:55;11.99;64.12
70089;HTU21D;57460;47.134;19.888;2023-11-21T09:18:23;11.99;64.05
70089;HTU21D;57460;47.134;19.888;2023-11-21T09:20:52;12.00;63.07
70089;HTU21D;57460;47.134;19.888;2023-11-21T09:23:18;11.91;63.17
70089;HTU21D;57460;47.134;19.888;2023-11-21T09:25:44;11.91;63.61
70089;HTU21D;57460;47.134;19.888;2023-11-21T09:28:15;11.83;64.42
70089;HTU21D;57460;47.134;19.888;2023-11-21T09:30:46;11.88;64.50
70089;HTU21D;57460;47.134;19.888;2023-11-21T09:33:15;11.86;63.91
70089;HTU21D;57460;47.134;19.888;2023-11-21T09:35:41;11.93;63.48
70089;HTU21D;57460;47.134;19.888;2023-11-21T09:38:09;11.96;64.06
70089;HTU21D;57460;47.134;19.888;2023-11-21T09:40:40;11.96;63.89
70089;HTU21D;57460;47.134;19.888;2023-11-21T09:43:17;12.04;63.74
70089;HTU21D;57460;47.134;19.888;2023-11-21T09:45:48;12.07;63.02
70089;HTU21D;57460;47.134;19.888;2023-11-21T09:48:17;12.01;63.56
70089;HTU21D;57460;47.134;19.888;2023-11-21T09:50:43;11.92;62.60
70089;HTU21D;57460;47.134;19.888;2023-11-21T09:53:20;12.07;63.59
70089;HTU21D;57460;47.134;19.888;2023-11-21T09:55:48;12.05;63.37
70089;HTU21D;57460;47.134;19.888;2023-11-21T09:58:18;12.08;63.12
70089;HTU21D;57460;47.134;19.888;2023-11-21T10:00:49;12.23;63.38
70089;HTU21D;57460;47.134;19.888;2023-11-21T10:03:19;12.13;62.54
70089;HTU21D;57460;47.134;19.888;2023-11-21T10:05:45;12.28;63.48
70089;HTU21D;57460;47.134;19.888;2023-11-21T10:08:14;12.35;62.99
70089;HTU21D;57460;47.134;19.888;2023-11-21T10:10:49;12.26;61.55
70089;HTU21D;57460;47.134;19.888;2023-11-21T10:13:20;12.42;62.83
70089;HTU21D;57460;47.134;19.888;2023-11-21T10:15:51;12.38;62.90
70089;HTU21D;57460;47.134;19.888;2023-11-21T10:18:19;12.29;61.18
70089;HTU21D;57460;47.134;19.888;2023-11-21T10:21:00;12.47;62.11
70089;HTU21D;57460;47.134;19.888;2023-11-21T10:23:27;12.22;60.96
70089;HTU21D;57460;47.134;19.888;2023-11-21T10:25:54;12.32;61.82
70089;HTU21D;57460;47.134;19.888;2023-11-21T10:28:21;12.36;61.80
70089;HTU21D;57460;47.134;19.888;2023-11-21T10:30:54;12.23;61.82
70089;HTU21D;57460;47.134;19.888;2023-11-21T10:33:30;12.31;62.39
70089;HTU21D;57460;47.134;19.888;2023-11-21T10:35:58;12.37;60.88
70089;HTU21D;57460;47.134;19.888;2023-11-21T10:38:25;12.47;62.39
70089;HTU21D;57460;47.134;19.888;2023-11-21T10:40:55;12.51;62.45
70089;HTU21D;57460;47.134;19.888;2023-11-21T10:43:24;12.53;61.99
70089;HTU21D;57460;47.134;19.888;2023-11-21T10:45:50;12.55;60.57
70089;HTU21D;57460;47.134;19.888;2023-11-21T10:48:16;12.44;62.19
70089;HTU21D;57460;47.134;19.888;2023-11-21T10:50:46;12.43;62.25
70089;HTU21D;57460;47.134;19.888;2023-11-21T10:53:12;12.47;61.48
70089;HTU21D;57460;47.134;19.888;2023-11-21T10:55:38;12.38;61.88
70089;HTU21D;57460;47.134;19.888;2023-11-21T10:58:05;12.48;62.57
70089;HTU21D;57460;47.134;19.888;2023-11-21T11:00:33;12.16;62.54
70089;HTU21D;57460;47.134;19.888;2023-11-21T11:03:02;12.28;62.91
70089;HTU21D;57460;47.134;19.888;2023-11-21T11:05:29;12.30;63.33
70089;HTU21D;57460;47.134;19.888;2023-11-21T11:08:08;12.19;63.45
70089;HTU21D;57460;47.134;19.888;2023-11-21T11:10:42;12.14;63.68
70089;HTU21D;57460;47.134;19.888;2023-11-21T11:13:13;12.15;63.96
70089;HTU21D;57460;47.134;19.888;2023-11-21T11:15:49;12.08;64.52
70089;HTU21D;57460;47.134;19.888;2023-11-21T11:18:21;12.05;64.60
70089;HTU21D;57460;47.134;19.888;2023-11-21T11:20:51;12.04;65.25
70089;HTU21D;57460;47.134;19.888;2023-11-21T11:29:33;12.16;64.84
70089;HTU21D;57460;47.134;19.888;2023-11-21T11:35:30;11.92;65.69
70089;HTU21D;57460;47.134;19.888;2023-11-21T11:37:58;11.89;66.98
70089;HTU21D;57460;47.134;19.888;2023-11-21T11:40:38;11.70;68.88
70089;HTU21D;57460;47.134;19.888;2023-11-21T11:43:06;11.70;67.63
70089;HTU21D;57460;47.134;19.888;2023-11-21T11:45:34;11.76;66.78
70089;HTU21D;57460;47.134;19.888;2023-11-21T11:48:02;11.67;68.36
70089;HTU21D;57460;47.134;19.888;2023-11-21T11:50:29;11.69;68.46
70089;HTU21D;57460;47.134;19.888;2023-11-21T11:53:14;11.71;68.41
70089;HTU21D;57460;47.134;19.888;2023-11-21T11:55:41;11.68;69.08
70089;HTU21D;57460;47.134;19.888;2023-11-21T11:58:07;11.61;71.17
70089;HTU21D;57460;47.134;19.888;2023-11-21T12:00:35;11.60;70.87
70089;HTU21D;57460;47.134;19.888;2023-11-21T12:03:05;11.57;70.32
70089;HTU21D;57460;47.134;19.888;2023-11-21T12:05:34;11.56;70.79
70089;HTU21D;57460;47.134;19.888;2023-11-21T12:08:09;11.44;71.87
70089;HTU21D;57460;47.134;19.888;2023-11-21T12:10:38;11.33;73.08
70089;HTU21D;57460;47.134;19.888;2023-11-21T12:13:11;11.22;73.70
70089;HTU21D;57460;47.134;19.888;2023-11-21T12:15:40;11.15;73.25
70089;HTU21D;57460;47.134;19.888;2023-11-21T12:18:07;11.12;73.74
70089;HTU21D;57460;47.134;19.888;2023-11-21T12:20:33;11.10;73.95
70089;HTU21D;57460;47.134;19.888;2023-11-21T12:23:05;11.19;72.97
70089;HTU21D;57460;47.134;19.888;2023-11-21T12:25:31;11.18;74.66
70089;HTU21D;57460;47.134;19.888;2023-11-21T12:27:59;11.17;71.94
70089;HTU21D;57460;47.134;19.888;2023-11-21T12:30:27;11.17;73.09
70089;HTU21D;57460;47.134;19.888;2023-11-21T12:32:58;11.25;72.98
70089;HTU21D;57460;47.134;19.888;2023-11-21T12:35:27;11.34;73.41
70089;HTU21D;57460;47.134;19.888;2023-11-21T12:37:55;11.41;72.16
70089;HTU21D;57460;47.134;19.888;2023-11-21T12:40:23;11.49;72.25
70089;HTU21D;57460;47.134;19.888;2023-11-21T12:42:54;11.59;70.50
70089;HTU21D;57460;47.134;19.888;2023-11-21T12:47:54;11.69;69.72
70089;HTU21D;57460;47.134;19.888;2023-11-21T12:50:24;11.67;70.10
70089;HTU21D;57460;47.134;19.888;2023-11-21T12:52:58;11.62;71.08
70089;HTU21D;57460;47.134;19.888;2023-11-21T12:55:24;11.66;70.57
70089;HTU21D;57460;47.134;19.888;2023-11-21T12:57:55;11.67;70.71
70089;HTU21D;57460;47.134;19.888;2023-11-21T13:00:33;11.68;71.03
70089;HTU21D;57460;47.134;19.888;2023-11-21T13:03:04;11.71;70.98
70089;HTU21D;57460;47.134;19.888;2023-11-21T13:05:34;11.72;71.81
70089;HTU21D;57460;47.134;19.888;2023-11-21T13:08:03;11.72;72.56
70089;HTU21D;57460;47.134;19.888;2023-11-21T13:10:33;11.72;72.48
70089;HTU21D;57460;47.134;19.888;2023-11-21T13:13:02;11.71;72.29
70089;HTU21D;57460;47.134;19.888;2023-11-21T13:15:31;11.76;71.16
70089;HTU21D;57460;47.134;19.888;2023-11-21T13:17:59;11.74;72.16
70089;HTU21D;57460;47.134;19.888;2023-11-21T13:20:25;11.79;70.84
70089;HTU21D;57460;47.134;19.888;2023-11-21T13:22:53;11.73;71.52
70089;HTU21D;57460;47.134;19.888;2023-11-21T13:25:29;11.69;71.65
70089;HTU21D;57460;47.134;19.888;2023-11-21T13:27:58;11.68;71.39
70089;HTU21D;57460;47.134;19.888;2023-11-21T13:30:27;11.72;70.14
70089;HTU21D;57460;47.134;19.888;2023-11-21T13:32:59;11.74;70.21
70089;HTU21D;57460;47.134;19.888;2023-11-21T13:35:32;11.63;70.72
70089;HTU21D;57460;47.134;19.888;2023-11-21T13:38:09;11.49;71.96
70089;HTU21D;57460;47.134;19.888;2023-11-21T13:40:37;11.47;72.08
70089;HTU21D;57460;47.134;19.888;2023-11-21T13:43:09;11.47;72.00
70089;HTU21D;57460;47.134;19.888;2023-11-21T13:45:39;11.52;71.51
70089;HTU21D;57460;47.134;19.888;2023-11-21T13:48:07;11.53;71.35
70089;HTU21D;57460;47.134;19.888;2023-11-21T13:50:36;11.45;71.61
70089;HTU21D;57460;47.134;19.888;2023-11-21T13:53:03;11.38;72.91
70089;HTU21D;57460;47.134;19.888;2023-11-21T13:55:34;11.37;74.11
70089;HTU21D;57460;47.134;19.888;2023-11-21T13:58:01;11.38;72.07
70089;HTU21D;57460;47.134;19.888;2023-11-21T14:00:34;11.42;72.03
70089;HTU21D;57460;47.134;19.888;2023-11-21T14:03:20;11.47;71.70
70089;HTU21D;57460;47.134;19.888;2023-11-21T14:05:50;11.36;72.53
70089;HTU21D;57460;47.134;19.888;2023-11-21T14:08:20;11.37;72.43
70089;HTU21D;57460;47.134;19.888;2023-11-21T14:10:50;11.39;72.24
70089;HTU21D;57460;47.134;19.888;2023-11-21T14:13:19;11.36;72.77
70089;HTU21D;57460;47.134;19.888;2023-11-21T14:15:49;11.34;73.36
70089;HTU21D;57460;47.134;19.888;2023-11-21T14:18:18;11.37;73.61
70089;HTU21D;57460;47.134;19.888;2023-11-21T14:20:52;11.42;72.56
70089;HTU21D;57460;47.134;19.888;2023-11-21T14:23:18;11.52;71.89
70089;HTU21D;57460;47.134;19.888;2023-11-21T14:25:45;11.49;71.77
70089;HTU21D;57460;47.134;19.888;2023-11-21T14:28:13;11.40;72.42
70089;HTU21D;57460;47.134;19.888;2023-11-21T14:30:40;11.40;72.33
70089;HTU21D;57460;47.134;19.888;2023-11-21T14:33:07;11.44;72.15
70089;HTU21D;57460;47.134;19.888;2023-11-21T14:35:34;11.40;72.37
70089;HTU21D;57460;47.134;19.888;2023-11-21T14:38:00;11.38;72.48
70089;HTU21D;57460;47.134;19.888;2023-11-21T14:40:27;11.30;72.87
70089;HTU21D;57460;47.134;19.888;2023-11-21T14:42:58;11.32;72.65
70089;HTU21D;57460;47.134;19.888;2023-11-21T14:45:23;11.25;73.06
70089;HTU21D;57460;47.134;19.888;2023-11-21T14:47:52;11.29;72.92
70089;HTU21D;57460;47.134;19.888;2023-11-21T14:50:44;11.25;73.17
70089;HTU21D;57460;47.134;19.888;2023-11-21T14:53:28;11.27;73.22
70089;HTU21D;57460;47.134;19.888;2023-11-21T14:56:20;11.15;73.49
70089;HTU21D;57460;47.134;19.888;2023-11-21T14:58:55;11.15;73.39
70089;HTU21D;57460;47.134;19.888;2023-11-21T15:01:31;11.11;73.70
70089;HTU21D;57460;47.134;19.888;2023-11-21T15:04:26;11.14;73.40
70089;HTU21D;57460;47.134;19.888;2023-11-21T15:07:03;11.22;73.25
70089;HTU21D;57460;47.134;19.888;2023-11-21T15:09:30;11.10;73.56
70089;HTU21D;57460;47.134;19.888;2023-11-21T15:11:59;11.05;73.73
70089;HTU21D;57460;47.134;19.888;2023-11-21T15:14:45;10.93;74.69
70089;HTU21D;57460;47.134;19.888;2023-11-21T15:17:14;10.93;74.49
70089;HTU21D;57460;47.134;19.888;2023-11-21T15:19:54;11.00;73.82
70089;HTU21D;57460;47.134;19.888;2023-11-21T15:22:20;10.96;74.28
70089;HTU21D;57460;47.134;19.888;2023-11-21T15:24:46;10.90;74.49
70089;HTU21D;57460;47.134;19.888;2023-11-21T15:27:13;10.90;74.60
70089;HTU21D;57460;47.134;19.888;2023-11-21T15:29:39;10.94;74.22
70089;HTU21D;57460;47.134;19.888;2023-11-21T15:32:07;10.96;74.00